createdAt,value
2023-01-30T00:01:56.922Z,16.25
2023-01-30T00:04:24.697Z,17.35
2023-01-30T00:06:52.406Z,20.60
2023-01-30T00:09:20.059Z,19.17
2023-01-30T00:11:47.947Z,20.40
2023-01-30T00:14:15.722Z,16.08
2023-01-30T00:16:43.925Z,15.48
2023-01-30T00:19:11.668Z,14.85
2023-01-30T00:21:39.485Z,18.70
2023-01-30T00:24:07.450Z,14.93
2023-01-30T00:26:35.178Z,16.80
2023-01-30T00:29:02.927Z,16.85
2023-01-30T00:31:30.639Z,19.00
2023-01-30T00:33:58.307Z,19.25
2023-01-30T00:36:26.052Z,17.67
2023-01-30T00:38:53.759Z,18.83
2023-01-30T00:41:21.671Z,16.23
2023-01-30T00:44:08.163Z,17.83
2023-01-30T00:46:54.655Z,15.15
2023-01-30T00:49:22.517Z,18.70
2023-01-30T00:51:50.244Z,19.17
2023-01-30T00:54:17.935Z,20.62
2023-01-30T00:56:45.618Z,16.75
2023-01-30T00:59:13.333Z,17.17
2023-01-30T01:01:41.145Z,18.40
2023-01-30T01:04:11.534Z,19.37
2023-01-30T01:06:39.880Z,12.55
2023-01-30T01:09:08.287Z,17.12
2023-01-30T01:11:36.429Z,16.48
2023-01-30T01:14:06.479Z,19.20
2023-01-30T01:16:36.204Z,18.40
2023-01-30T01:19:04.761Z,17.00
2023-01-30T01:21:32.496Z,18.40
2023-01-30T01:24:01.828Z,19.60
2023-01-30T01:26:29.623Z,19.65
2023-01-30T01:28:58.827Z,20.23
2023-01-30T01:31:27.663Z,19.85
2023-01-30T01:33:55.349Z,22.98
2023-01-30T01:39:10.837Z,18.25
2023-01-30T01:41:38.747Z,17.70
2023-01-30T01:44:10.646Z,21.52
2023-01-30T01:46:41.546Z,18.05
2023-01-30T01:49:29.793Z,18.08
2023-01-30T01:52:18.480Z,20.35
2023-01-30T01:54:51.484Z,19.23
2023-01-30T01:57:25.183Z,19.92
2023-01-30T01:59:58.799Z,16.15
2023-01-30T02:02:27.243Z,18.30
2023-01-30T02:05:05.635Z,17.75
2023-01-30T02:07:40.535Z,18.27
2023-01-30T02:10:11.488Z,19.37
2023-01-30T02:12:40.476Z,21.95
2023-01-30T02:15:08.738Z,19.80
2023-01-30T02:17:36.411Z,21.05
2023-01-30T02:20:06.981Z,19.48
2023-01-30T02:22:49.689Z,14.93
2023-01-30T02:26:01.335Z,18.48
2023-01-30T02:29:05.837Z,20.02
2023-01-30T02:31:42.173Z,16.00
2023-01-30T02:34:38.071Z,18.98
2023-01-30T02:37:29.285Z,16.90
2023-01-30T02:40:12.863Z,18.10
2023-01-30T02:43:18.002Z,14.25
2023-01-30T02:45:51.978Z,17.12
2023-01-30T02:48:33.934Z,20.48
2023-01-30T02:51:08.592Z,19.58
2023-01-30T02:53:37.733Z,21.45
2023-01-30T02:56:05.682Z,25.10
2023-01-30T02:58:44.039Z,18.77
2023-01-30T03:01:40.320Z,17.80
2023-01-30T03:04:19.550Z,17.92
2023-01-30T03:07:08.978Z,20.73
2023-01-30T03:10:10.986Z,18.20
2023-01-30T03:13:05.445Z,17.67
2023-01-30T03:15:43.414Z,16.83
2023-01-30T03:18:11.235Z,18.17
2023-01-30T03:20:41.107Z,20.98
2023-01-30T03:23:09.513Z,22.80
2023-01-30T03:25:40.715Z,23.50
2023-01-30T03:28:09.402Z,22.75
2023-01-30T03:30:37.139Z,16.95
2023-01-30T03:33:04.909Z,21.45
2023-01-30T03:35:32.661Z,21.67
2023-01-30T03:38:00.438Z,19.55
2023-01-30T03:40:28.271Z,18.50
2023-01-30T03:42:55.954Z,20.70
2023-01-30T03:45:23.635Z,22.40
2023-01-30T03:47:51.345Z,22.73
2023-01-30T03:50:19.370Z,23.27
2023-01-30T03:52:47.181Z,20.83
2023-01-30T03:55:15.002Z,20.10
2023-01-30T03:57:42.690Z,19.40
2023-01-30T04:00:11.014Z,20.25
2023-01-30T04:02:39.813Z,22.62
2023-01-30T04:05:07.799Z,18.90
2023-01-30T04:07:35.492Z,18.33
2023-01-30T04:10:03.123Z,20.05
2023-01-30T04:12:30.765Z,21.95
2023-01-30T04:14:58.468Z,18.87
2023-01-30T04:17:26.171Z,21.95
2023-01-30T04:19:53.776Z,20.37
2023-01-30T04:22:21.494Z,19.90
2023-01-30T04:24:49.157Z,19.20
2023-01-30T04:27:16.947Z,21.27
2023-01-30T04:29:44.924Z,19.60
2023-01-30T04:32:12.650Z,23.67
2023-01-30T04:34:40.273Z,20.62
2023-01-30T04:37:08.005Z,21.45
2023-01-30T04:39:35.705Z,19.25
2023-01-30T04:42:03.439Z,18.80
2023-01-30T04:44:31.255Z,20.45
2023-01-30T04:46:59.036Z,18.48
2023-01-30T04:49:26.776Z,18.80
2023-01-30T04:51:54.505Z,19.52
2023-01-30T04:54:22.298Z,21.50
2023-01-30T04:56:49.978Z,18.73
2023-01-30T04:59:17.741Z,22.73
2023-01-30T05:01:45.554Z,20.02
2023-01-30T05:04:13.933Z,19.40
2023-01-30T05:06:41.994Z,21.00
2023-01-30T05:09:09.824Z,20.67
2023-01-30T05:11:37.642Z,21.17
2023-01-30T05:14:05.435Z,18.70
2023-01-30T05:16:33.241Z,20.12
2023-01-30T05:19:01.006Z,19.40
2023-01-30T05:21:29.831Z,20.45
2023-01-30T05:23:58.745Z,22.23
2023-01-30T05:26:26.666Z,19.20
2023-01-30T05:28:56.674Z,22.27
2023-01-30T05:31:24.835Z,20.00
2023-01-30T05:33:53.562Z,18.60
2023-01-30T05:36:23.183Z,20.98
2023-01-30T05:38:51.213Z,18.08
2023-01-30T05:41:19.375Z,17.62
2023-01-30T05:43:51.469Z,18.83
2023-01-30T05:46:19.512Z,19.23
2023-01-30T05:48:47.430Z,15.75
2023-01-30T05:51:24.083Z,17.85
2023-01-30T05:53:52.503Z,16.85
2023-01-30T05:56:20.917Z,17.92
2023-01-30T05:58:53.756Z,16.75
2023-01-30T06:01:22.744Z,19.35
2023-01-30T06:03:50.866Z,16.77
2023-01-30T06:06:18.655Z,19.02
2023-01-30T06:08:46.711Z,19.67
2023-01-30T06:11:18.503Z,17.12
2023-01-30T06:13:46.462Z,17.40
2023-01-30T06:16:16.361Z,17.17
2023-01-30T06:18:44.670Z,17.10
2023-01-30T06:21:12.368Z,16.62
2023-01-30T06:23:40.173Z,15.38
2023-01-30T06:26:09.269Z,15.00
2023-01-30T06:28:37.616Z,16.08
2023-01-30T06:31:08.453Z,17.75
2023-01-30T06:33:36.518Z,19.40
2023-01-30T06:36:04.611Z,14.05
2023-01-30T06:38:32.350Z,19.35
2023-01-30T06:41:00.314Z,16.92
2023-01-30T06:43:28.241Z,16.77
2023-01-30T06:45:55.885Z,19.25
2023-01-30T06:48:23.610Z,16.92
2023-01-30T06:50:51.371Z,16.10
2023-01-30T06:53:19.112Z,17.55
2023-01-30T06:55:46.873Z,19.10
2023-01-30T06:58:16.071Z,18.52
2023-01-30T07:00:44.575Z,18.48
2023-01-30T07:03:17.146Z,18.27
2023-01-30T07:05:46.248Z,18.80
2023-01-30T07:08:14.290Z,16.67
2023-01-30T07:10:42.929Z,19.62
2023-01-30T07:13:10.752Z,21.10
2023-01-30T07:15:38.722Z,22.27
2023-01-30T07:18:06.634Z,19.65
2023-01-30T07:20:34.512Z,16.67
2023-01-30T07:23:02.344Z,19.65
2023-01-30T07:25:30.774Z,21.08
2023-01-30T07:28:01.168Z,19.20
2023-01-30T07:30:30.833Z,17.87
2023-01-30T07:33:00.023Z,21.30
2023-01-30T07:35:30.916Z,21.83
2023-01-30T07:37:59.305Z,19.62
2023-01-30T07:40:27.347Z,20.45
2023-01-30T07:43:11.066Z,18.02
2023-01-30T07:45:38.736Z,18.65
2023-01-30T07:48:07.096Z,18.20
2023-01-30T07:50:35.196Z,20.88
2023-01-30T07:53:07.207Z,20.42
2023-01-30T07:55:35.725Z,18.83
2023-01-30T07:58:03.887Z,22.70
2023-01-30T08:00:31.939Z,24.55
2023-01-30T08:03:00.009Z,22.50
2023-01-30T08:05:28.195Z,19.15
2023-01-30T08:07:58.748Z,18.90
2023-01-30T08:10:26.482Z,22.00
2023-01-30T08:12:54.183Z,21.42
2023-01-30T08:15:22.925Z,21.08
2023-01-30T08:18:00.313Z,25.58
2023-01-30T08:20:28.808Z,20.35
2023-01-30T08:22:57.421Z,18.90
2023-01-30T08:25:25.132Z,22.52
2023-01-30T08:27:53.178Z,21.67
2023-01-30T08:30:23.793Z,21.27
2023-01-30T08:32:51.564Z,22.92
2023-01-30T08:35:19.646Z,22.00
2023-01-30T08:37:47.375Z,21.60
2023-01-30T08:40:16.179Z,20.50
2023-01-30T08:42:47.384Z,16.67
2023-01-30T08:45:15.474Z,23.83
2023-01-30T08:47:43.383Z,17.70
2023-01-30T08:50:11.877Z,18.60
2023-01-30T08:52:39.705Z,17.02
2023-01-30T08:55:07.702Z,18.87
2023-01-30T08:57:35.420Z,20.65
2023-01-30T09:00:03.600Z,19.55
2023-01-30T09:02:31.346Z,19.40
2023-01-30T09:04:59.027Z,17.45
2023-01-30T09:07:27.175Z,20.05
2023-01-30T09:09:54.904Z,17.12
2023-01-30T09:12:22.999Z,17.48
2023-01-30T09:14:50.721Z,20.27
2023-01-30T09:17:18.401Z,16.52
2023-01-30T09:19:46.183Z,16.08
2023-01-30T09:22:13.911Z,14.48
2023-01-30T09:24:41.581Z,16.02
2023-01-30T09:27:09.348Z,15.85
2023-01-30T09:29:37.017Z,15.90
2023-01-30T09:32:04.990Z,17.62
2023-01-30T09:34:32.653Z,17.17
2023-01-30T09:37:05.131Z,15.55
2023-01-30T09:39:32.950Z,15.48
2023-01-30T09:42:06.606Z,15.38
2023-01-30T09:45:11.615Z,14.45
2023-01-30T09:47:39.843Z,16.42
2023-01-30T09:50:25.117Z,12.73
2023-01-30T09:52:56.028Z,15.73
2023-01-30T09:55:27.836Z,15.07
2023-01-30T09:57:55.734Z,17.27
2023-01-30T10:00:44.647Z,15.48
2023-01-30T10:03:20.218Z,13.25
2023-01-30T10:05:55.863Z,12.37
2023-01-30T10:08:50.891Z,12.10
2023-01-30T10:11:18.571Z,14.45
2023-01-30T10:14:11.759Z,15.77
2023-01-30T10:16:59.900Z,13.13
2023-01-30T10:19:45.690Z,16.42
2023-01-30T10:22:37.499Z,13.60
2023-01-30T10:25:23.987Z,12.37
2023-01-30T10:28:18.363Z,14.10
2023-01-30T10:30:52.292Z,12.80
2023-01-30T10:33:29.116Z,14.25
2023-01-30T10:36:12.071Z,13.55
2023-01-30T10:38:49.948Z,15.30
2023-01-30T10:41:39.523Z,13.38
2023-01-30T10:44:11.359Z,13.07
2023-01-30T10:47:00.685Z,14.18
2023-01-30T10:49:50.953Z,12.05
2023-01-30T10:53:15.942Z,12.00
2023-01-30T10:55:49.603Z,13.90
2023-01-30T10:58:33.654Z,12.05
2023-01-30T11:01:08.142Z,11.60
2023-01-30T11:03:35.789Z,12.80
2023-01-30T11:06:14.505Z,12.05
2023-01-30T11:08:42.318Z,11.95
2023-01-30T11:11:48.506Z,13.62
2023-01-30T11:14:16.636Z,13.10
2023-01-30T11:16:51.092Z,13.07
2023-01-30T11:19:26.452Z,11.88
2023-01-30T11:21:57.744Z,14.48
2023-01-30T11:24:31.544Z,14.70
2023-01-30T11:27:18.101Z,12.65
2023-01-30T11:29:45.897Z,14.35
2023-01-30T11:32:20.874Z,15.25
2023-01-30T11:35:08.549Z,16.85
2023-01-30T11:37:42.725Z,13.35
2023-01-30T11:40:19.913Z,13.00
2023-01-30T11:43:05.316Z,13.10
2023-01-30T11:45:43.039Z,10.82
2023-01-30T11:48:34.132Z,11.35
2023-01-30T11:51:11.993Z,10.43
2023-01-30T11:53:44.947Z,12.40
2023-01-30T11:56:53.194Z,14.32
2023-01-30T11:59:56.060Z,11.55
2023-01-30T12:02:32.892Z,12.07
2023-01-30T12:05:06.538Z,11.02
2023-01-30T12:07:38.779Z,11.32
2023-01-30T12:10:42.419Z,13.25
2023-01-30T12:13:26.963Z,11.45
2023-01-30T12:16:28.014Z,11.05
2023-01-30T12:19:16.196Z,14.82
2023-01-30T12:21:53.605Z,13.20
2023-01-30T12:24:33.458Z,11.38
2023-01-30T12:27:21.181Z,11.38
2023-01-30T12:29:54.936Z,14.32
2023-01-30T12:32:27.474Z,12.70
2023-01-30T12:34:55.552Z,14.75
2023-01-30T12:37:46.364Z,13.18
2023-01-30T12:40:26.090Z,10.02
2023-01-30T12:43:15.235Z,12.15
2023-01-30T12:46:21.793Z,11.57
2023-01-30T12:52:05.757Z,11.93
2023-01-30T12:54:49.450Z,13.25
2023-01-30T12:57:32.830Z,13.45
2023-01-30T13:00:26.348Z,13.80
2023-01-30T13:03:01.864Z,14.23
2023-01-30T13:05:45.762Z,12.05
2023-01-30T13:08:38.117Z,14.80
2023-01-30T13:11:08.385Z,13.07
2023-01-30T13:13:47.161Z,13.38
2023-01-30T13:16:28.673Z,13.15
2023-01-30T13:19:07.008Z,13.95
2023-01-30T13:21:51.915Z,16.00
2023-01-30T13:24:47.401Z,15.70
2023-01-30T13:27:22.453Z,13.57
2023-01-30T13:29:51.530Z,14.77
2023-01-30T13:32:37.161Z,13.88
2023-01-30T13:37:12.314Z,13.65
2023-01-30T13:39:53.924Z,14.87
2023-01-30T13:42:31.091Z,16.02
2023-01-30T13:45:00.699Z,14.18
2023-01-30T13:47:52.232Z,14.60
2023-01-30T13:50:28.401Z,15.55
2023-01-30T13:53:07.791Z,13.35
2023-01-30T13:55:46.992Z,17.95
2023-01-30T13:58:36.611Z,14.00
2023-01-30T14:01:04.603Z,14.87
2023-01-30T14:03:36.367Z,12.27
2023-01-30T14:06:08.939Z,14.23
2023-01-30T14:08:42.411Z,13.18
2023-01-30T14:11:40.089Z,15.10
2023-01-30T14:14:29.435Z,14.57
2023-01-30T14:17:20.760Z,13.43
2023-01-30T14:19:59.079Z,12.73
2023-01-30T14:22:33.621Z,12.65
2023-01-30T14:25:26.265Z,14.73
2023-01-30T14:27:54.800Z,14.77
2023-01-30T14:30:50.524Z,13.20
2023-01-30T14:33:24.426Z,13.82
2023-01-30T14:36:04.163Z,13.27
2023-01-30T14:38:32.750Z,13.13
2023-01-30T14:41:00.725Z,12.55
2023-01-30T14:43:45.071Z,13.65
2023-01-30T14:46:18.822Z,12.37
2023-01-30T14:48:58.624Z,12.13
2023-01-30T14:51:36.071Z,12.07
2023-01-30T14:54:15.607Z,12.50
2023-01-30T14:57:17.341Z,13.30
2023-01-30T15:00:14.387Z,14.35
2023-01-30T15:02:50.254Z,12.88
2023-01-30T15:05:28.621Z,14.60
2023-01-30T15:08:20.274Z,11.27
2023-01-30T15:11:31.647Z,12.65
2023-01-30T15:14:13.040Z,14.25
2023-01-30T15:16:46.905Z,13.02
2023-01-30T15:19:49.991Z,16.20
2023-01-30T15:22:43.204Z,12.30
2023-01-30T15:25:10.832Z,12.77
2023-01-30T15:28:03.131Z,12.13
2023-01-30T15:30:58.284Z,13.38
2023-01-30T15:33:31.717Z,11.50
2023-01-30T15:36:00.634Z,11.10
2023-01-30T15:38:32.728Z,12.77
2023-01-30T15:41:05.948Z,13.80
2023-01-30T15:43:47.315Z,13.82
2023-01-30T15:46:23.105Z,15.68
2023-01-30T15:49:02.676Z,12.35
2023-01-30T15:51:33.188Z,10.35
2023-01-30T15:54:03.964Z,12.27
2023-01-30T15:56:33.173Z,13.25
2023-01-30T15:59:02.919Z,12.20
2023-01-30T16:01:31.377Z,11.98
2023-01-30T16:04:01.359Z,13.15
2023-01-30T16:06:35.347Z,13.70
2023-01-30T16:09:24.733Z,12.68
2023-01-30T16:11:52.767Z,15.45
2023-01-30T16:14:23.153Z,15.80
2023-01-30T16:17:04.890Z,15.18
2023-01-30T16:19:39.072Z,14.25
2023-01-30T16:22:16.869Z,13.95
2023-01-30T16:24:48.212Z,12.30
2023-01-30T16:27:30.383Z,13.62
2023-01-30T16:30:02.628Z,13.73
2023-01-30T16:32:33.026Z,13.05
2023-01-30T16:35:27.335Z,14.93
2023-01-30T16:37:58.171Z,13.57
2023-01-30T16:40:28.566Z,12.55
2023-01-30T16:43:04.500Z,15.18
2023-01-30T16:45:34.989Z,12.70
2023-01-30T16:48:34.396Z,13.07
2023-01-30T16:51:02.015Z,14.25
2023-01-30T16:53:32.169Z,12.70
2023-01-30T16:56:02.730Z,12.50
2023-01-30T16:58:36.005Z,14.70
2023-01-30T17:01:07.137Z,12.50
2023-01-30T17:03:38.282Z,15.20
2023-01-30T17:06:17.348Z,12.65
2023-01-30T17:08:56.535Z,12.43
2023-01-30T17:11:53.417Z,15.90
2023-01-30T17:14:27.112Z,13.60
2023-01-30T17:17:08.782Z,13.27
2023-01-30T17:19:37.542Z,14.10
2023-01-30T17:22:17.187Z,13.05
2023-01-30T17:24:44.986Z,12.77
2023-01-30T17:27:12.904Z,16.58
2023-01-30T17:29:43.334Z,14.73
2023-01-30T17:32:14.594Z,12.32
2023-01-30T17:34:42.629Z,12.13
2023-01-30T17:37:17.395Z,13.45
2023-01-30T17:39:46.768Z,16.90
2023-01-30T17:42:15.927Z,15.60
2023-01-30T17:44:43.612Z,16.95
2023-01-30T17:47:13.314Z,13.90
2023-01-30T17:49:41.434Z,14.57
2023-01-30T17:52:14.785Z,12.70
2023-01-30T17:54:42.588Z,11.32
2023-01-30T17:57:16.664Z,14.43
2023-01-30T17:59:44.533Z,15.18
2023-01-30T18:02:12.263Z,14.02
2023-01-30T18:04:42.912Z,13.32
2023-01-30T18:07:15.239Z,13.13
2023-01-30T18:09:43.133Z,13.23
2023-01-30T18:12:10.845Z,11.88
2023-01-30T18:14:38.570Z,16.20
2023-01-30T18:17:06.575Z,14.80
2023-01-30T18:19:34.369Z,12.52
2023-01-30T18:22:02.129Z,13.48
2023-01-30T18:24:29.811Z,14.10
2023-01-30T18:26:59.114Z,12.63
2023-01-30T18:29:28.121Z,13.23
2023-01-30T18:31:55.808Z,12.15
2023-01-30T18:34:23.565Z,13.93
2023-01-30T18:36:51.386Z,15.23
2023-01-30T18:39:19.198Z,15.25
2023-01-30T18:41:46.986Z,15.40
2023-01-30T18:44:14.642Z,15.90
2023-01-30T18:46:42.631Z,13.60
2023-01-30T18:49:10.316Z,14.43
2023-01-30T18:51:38.090Z,17.80
2023-01-30T18:54:05.896Z,13.10
2023-01-30T18:56:35.288Z,15.35
2023-01-30T18:59:06.263Z,14.05
2023-01-30T19:01:39.715Z,13.93
2023-01-30T19:04:09.998Z,15.15
2023-01-30T19:06:41.451Z,15.15
2023-01-30T19:09:13.262Z,15.38
2023-01-30T19:11:59.828Z,15.30
2023-01-30T19:14:27.478Z,13.75
2023-01-30T19:16:55.707Z,12.73
2023-01-30T19:19:23.593Z,12.02
2023-01-30T19:21:53.346Z,13.15
2023-01-30T19:24:21.363Z,13.55
2023-01-30T19:26:49.382Z,12.80
2023-01-30T19:29:19.296Z,14.32
2023-01-30T19:31:48.540Z,12.70
2023-01-30T19:34:16.534Z,11.32
2023-01-30T19:36:44.265Z,16.05
2023-01-30T19:39:12.056Z,11.85
2023-01-30T19:41:39.802Z,12.80
2023-01-30T19:44:09.259Z,13.93
2023-01-30T19:46:37.610Z,12.10
2023-01-30T19:49:05.969Z,11.80
2023-01-30T19:51:35.684Z,10.65
2023-01-30T19:54:06.308Z,11.40
2023-01-30T19:56:34.654Z,10.70
2023-01-30T19:59:03.365Z,9.70
2023-01-30T20:01:33.953Z,9.77
2023-01-30T20:04:05.384Z,10.35
2023-01-30T20:06:34.491Z,9.35
2023-01-30T20:09:07.786Z,10.55
2023-01-30T20:11:37.478Z,11.07
2023-01-30T20:14:07.634Z,10.50
2023-01-30T20:16:36.822Z,7.43
2023-01-30T20:19:12.878Z,8.88
2023-01-30T20:21:40.786Z,8.43
2023-01-30T20:24:10.697Z,6.85
2023-01-30T20:26:40.621Z,8.80
2023-01-30T20:29:10.582Z,7.50
2023-01-30T20:31:41.757Z,8.20
2023-01-30T20:34:12.992Z,6.80
2023-01-30T20:36:40.979Z,8.63
2023-01-30T20:39:09.492Z,5.55
2023-01-30T20:41:38.793Z,7.20
2023-01-30T20:44:09.423Z,7.47
2023-01-30T20:46:42.728Z,6.40
2023-01-30T20:49:19.858Z,8.43
2023-01-30T20:51:51.300Z,6.53
2023-01-30T20:54:21.684Z,6.75
2023-01-30T20:56:52.181Z,6.78
2023-01-30T20:59:25.017Z,7.30
2023-01-30T21:01:54.163Z,5.80
2023-01-30T21:04:23.953Z,5.78
2023-01-30T21:06:51.812Z,4.75
2023-01-30T21:09:22.574Z,5.15
2023-01-30T21:11:52.327Z,4.62
2023-01-30T21:14:20.295Z,4.93
2023-01-30T21:16:49.050Z,4.25
2023-01-30T21:19:18.367Z,6.20
2023-01-30T21:21:51.630Z,6.18
2023-01-30T21:24:22.799Z,4.72
2023-01-30T21:26:50.834Z,6.30
2023-01-30T21:29:21.067Z,4.97
2023-01-30T21:31:48.886Z,4.10
2023-01-30T21:34:17.062Z,3.72
2023-01-30T21:36:44.783Z,4.55
2023-01-30T21:39:32.974Z,5.62
2023-01-30T21:42:21.367Z,5.28
2023-01-30T21:44:50.619Z,4.68
2023-01-30T21:47:18.309Z,4.78
2023-01-30T21:49:46.769Z,4.62
2023-01-30T21:52:14.446Z,4.45
2023-01-30T21:54:42.160Z,4.80
2023-01-30T21:57:09.832Z,4.90
2023-01-30T21:59:37.685Z,4.70
2023-01-30T22:02:05.506Z,5.55
2023-01-30T22:04:36.458Z,5.10
2023-01-30T22:07:06.783Z,4.60
2023-01-30T22:09:34.981Z,4.62
2023-01-30T22:12:02.698Z,5.10
2023-01-30T22:14:30.424Z,5.80
2023-01-30T22:16:58.234Z,3.97
2023-01-30T22:19:25.883Z,3.45
2023-01-30T22:21:53.856Z,5.43
2023-01-30T22:24:21.693Z,4.47
2023-01-30T22:26:49.414Z,6.03
2023-01-30T22:29:19.156Z,4.28
2023-01-30T22:31:47.035Z,4.72
2023-01-30T22:34:14.827Z,5.20
2023-01-30T22:36:42.580Z,4.82
2023-01-30T22:39:10.430Z,4.30
2023-01-30T22:41:38.663Z,4.95
2023-01-30T22:44:09.840Z,6.53
2023-01-30T22:46:40.248Z,5.75
2023-01-30T22:49:09.913Z,4.45
2023-01-30T22:51:39.887Z,5.07
2023-01-30T22:54:11.561Z,6.28
2023-01-30T22:56:41.841Z,6.75
2023-01-30T22:59:10.003Z,6.32
2023-01-30T23:01:40.314Z,8.18
2023-01-30T23:04:16.579Z,5.78
2023-01-30T23:06:45.060Z,5.62
2023-01-30T23:09:17.001Z,7.70
2023-01-30T23:12:10.576Z,7.45
2023-01-30T23:14:39.388Z,4.78
2023-01-30T23:17:28.318Z,5.53
2023-01-30T23:19:56.147Z,5.07
2023-01-30T23:22:24.473Z,4.87
2023-01-30T23:24:52.210Z,5.95
2023-01-30T23:27:20.909Z,4.68
2023-01-30T23:29:48.990Z,5.62
2023-01-30T23:32:20.170Z,6.43
2023-01-30T23:34:48.813Z,5.37
2023-01-30T23:37:16.993Z,5.18
2023-01-30T23:39:45.144Z,7.45
2023-01-30T23:42:12.888Z,5.60
2023-01-30T23:44:40.770Z,5.62
2023-01-30T23:47:08.385Z,6.03
2023-01-30T23:49:36.375Z,5.75
2023-01-30T23:52:04.052Z,6.68
2023-01-30T23:54:31.764Z,8.15
2023-01-30T23:56:59.396Z,6.07
2023-01-30T23:59:27.087Z,5.47
